Hauptseite
METAR-TAF:

METAR-TAF

Flughäfen :

Flughafen Perugia

Perugia, Italien

Breite: 43-05N, Länge: 012-30E, Höhe: 208 m

Beobachtung

Neuester Wetterbericht von vor 31 Minuten, um 05:50 UTC
Wind 3 kt aus Süd/Südost, variierte zwischen Südost und Süd
Temperatur 3°C
Luftfeuchtigkeit 93%
Luftdruck 998 hPa
Sichtweite: 4000 m
Leichtregen

METAR: LIRZ 230550Z AUTO 16003KT 130V190 4000 -RA OVC013/// 03/02 Q0998

Zeit: 07:21 (06:21 UTC)

Prognose

Neuester Wetterbericht von vor 1 Stunde und 21 Minuten, um 05:00 UTC
Gültige Prognose vom 23 um 06 UTC bis 24 um 06 UTC
Wind 5 kt aus unterschiedlichen Richtungen
Sichtweite: 7000 m
Aufgelockert bewölkt in der Höhe von 3000 ft
Zeitweise
vom 23 um 15 UTC bis 23 um 18 UTC
Regen
Übergehend zu
vom 24 um 02 UTC bis 24 um 04 UTC
Wind 10 kt aus Nord/Nordost

TAF: LIRZ 230500Z 2306/2406 VRB05KT 7000 SCT030 TEMPO 2315/2318 RA BECMG 2402/2404 02010KT

Wetterbeobachtungen und Prognosen von mehr als 4000 Flughäfen (METAR und TAF Bericht).

Die verfügbaren Stationen werden durch gelbe und rote Markierungen auf der Karte dargestellt.

Führen Sie die Maus auf sie, um den Namen der Station zu sehen.

Darauf klicken, um die Beobachtung von Wetterbeobachtungen und Prognosen zu sehen.

Um die Karte zu ändern : klicken Sie auf den grünen Tasten mit einem schwarzen Kreuz Zum Vergrößern, auf den grünen Button mit einem Gedankenstrich zu verkleinern, oder auf die grünen Pfeile für benachbarte Karten.


METAR-TAF: